N17AW KMGJ-04B6
Flight info
| Callsign | N17AW |
|---|---|
| Flight time | N/A |
| Altitude | 7000 |
| Route | WEETS V213 ALB GFALS |
| Aircraft | C208/L-SDFGR/C |
Departure
| Time | 2026-04-26 13:56 |
|---|---|
| Airport | Orange County Airport (KMGJ) |
Arrival
| Time | N/A |
|---|---|
| Airport | 04B6 |
| Time | Latitude | Longitude | Altitude | Speed | Heading |
|---|---|---|---|---|---|
| 2026-04-26 13:44 | 41.51136 | -74.26018 | 367 ft | 0 kts | 43° |
| 2026-04-26 13:54 | 41.51156 | -74.25966 | 367 ft | 11 kts | 90° |
| 2026-04-26 13:54 | 41.51107 | -74.25843 | 369 ft | 19 kts | 130° |
| 2026-04-26 13:55 | 41.51087 | -74.25628 | 376 ft | 0 kts | 131° |
| 2026-04-26 13:55 | 41.51027 | -74.25615 | 375 ft | 15 kts | 214° |
| 2026-04-26 13:56 | 41.50938 | -74.25863 | 371 ft | 54 kts | 246° |
| 2026-04-26 13:56 | 41.50702 | -74.26547 | 402 ft | 101 kts | 242° |
| 2026-04-26 13:56 | 41.50361 | -74.27413 | 678 ft | 109 kts | 239° |
| 2026-04-26 13:56 | 41.49970 | -74.28298 | 1041 ft | 111 kts | 237° |
| 2026-04-26 13:57 | 41.49683 | -74.29272 | 1323 ft | 118 kts | 262° |
| 2026-04-26 13:57 | 41.49695 | -74.30375 | 1685 ft | 118 kts | 287° |
| 2026-04-26 13:57 | 41.49962 | -74.31415 | 2040 ft | 120 kts | 297° |
| 2026-04-26 13:57 | 41.50416 | -74.32328 | 2309 ft | 120 kts | 327° |
| 2026-04-26 13:58 | 41.51149 | -74.32817 | 2655 ft | 115 kts | 347° |
| 2026-04-26 13:58 | 41.51850 | -74.33252 | 3100 ft | 113 kts | 334° |
| 2026-04-26 13:58 | 41.52554 | -74.33765 | 3364 ft | 117 kts | 352° |
| 2026-04-26 13:58 | 41.53375 | -74.33762 | 3605 ft | 117 kts | 17° |
| 2026-04-26 13:59 | 41.54092 | -74.33410 | 4101 ft | 103 kts | 25° |
| 2026-04-26 13:59 | 41.54697 | -74.32956 | 4482 ft | 99 kts | 54° |
| 2026-04-26 13:59 | 41.55003 | -74.32147 | 4891 ft | 95 kts | 56° |
| 2026-04-26 14:00 | 41.55973 | -74.29792 | 5808 ft | 105 kts | 59° |
| 2026-04-26 14:00 | 41.56414 | -74.28992 | 6086 ft | 109 kts | 42° |
| 2026-04-26 14:00 | 41.56823 | -74.28587 | 6268 ft | 113 kts | 26° |
| 2026-04-26 14:01 | 41.57817 | -74.28101 | 6632 ft | 118 kts | 21° |
| 2026-04-26 14:01 | 41.58610 | -74.27749 | 6887 ft | 121 kts | 20° |
| 2026-04-26 14:01 | 41.59445 | -74.27403 | 6999 ft | 132 kts | 20° |
| 2026-04-26 14:01 | 41.60365 | -74.26993 | 7015 ft | 145 kts | 20° |
| 2026-04-26 14:02 | 41.61354 | -74.26607 | 7128 ft | 146 kts | 17° |
| 2026-04-26 14:02 | 41.62308 | -74.26235 | 7305 ft | 142 kts | 18° |
| 2026-04-26 14:02 | 41.63248 | -74.25857 | 7481 ft | 139 kts | 18° |
| 2026-04-26 14:02 | 41.64164 | -74.25492 | 7652 ft | 138 kts | 18° |
| 2026-04-26 14:03 | 41.65090 | -74.25118 | 7821 ft | 137 kts | 18° |
| 2026-04-26 14:03 | 41.65997 | -74.24755 | 7994 ft | 136 kts | 18° |
| 2026-04-26 14:03 | 41.66910 | -74.24388 | 8170 ft | 136 kts | 17° |
| 2026-04-26 14:03 | 41.67813 | -74.24025 | 8343 ft | 136 kts | 17° |
| 2026-04-26 14:04 | 41.68709 | -74.23665 | 8518 ft | 135 kts | 17° |
| 2026-04-26 14:04 | 41.69610 | -74.23303 | 8696 ft | 134 kts | 17° |
| 2026-04-26 14:04 | 41.70510 | -74.22942 | 8878 ft | 135 kts | 17° |
| 2026-04-26 14:04 | 41.71407 | -74.22581 | 8996 ft | 139 kts | 17° |
| 2026-04-26 14:05 | 41.72374 | -74.22189 | 9005 ft | 148 kts | 17° |
| 2026-04-26 14:05 | 41.73372 | -74.21787 | 9008 ft | 153 kts | 17° |
| 2026-04-26 14:05 | 41.74394 | -74.21376 | 9010 ft | 155 kts | 17° |
| 2026-04-26 14:05 | 41.75443 | -74.20953 | 9010 ft | 158 kts | 17° |
| 2026-04-26 14:06 | 41.76498 | -74.20528 | 9010 ft | 159 kts | 17° |
| 2026-04-26 14:06 | 41.77551 | -74.20104 | 9011 ft | 160 kts | 17° |
| 2026-04-26 14:06 | 41.78620 | -74.19673 | 9010 ft | 160 kts | 17° |
| 2026-04-26 14:06 | 41.79682 | -74.19245 | 9009 ft | 159 kts | 17° |
| 2026-04-26 14:07 | 41.80749 | -74.18815 | 9008 ft | 159 kts | 17° |
| 2026-04-26 14:07 | 41.81802 | -74.18390 | 9008 ft | 159 kts | 17° |
| 2026-04-26 14:07 | 41.82865 | -74.17961 | 9008 ft | 159 kts | 17° |
| 2026-04-26 14:07 | 41.83921 | -74.17535 | 9007 ft | 159 kts | 17° |
| 2026-04-26 14:08 | 41.84987 | -74.17104 | 9007 ft | 159 kts | 17° |
| 2026-04-26 14:08 | 41.86044 | -74.16677 | 9007 ft | 159 kts | 17° |
| 2026-04-26 14:08 | 41.87111 | -74.16246 | 9006 ft | 159 kts | 17° |
| 2026-04-26 14:08 | 41.88170 | -74.15818 | 9008 ft | 160 kts | 17° |
| 2026-04-26 14:09 | 41.89231 | -74.15389 | 9005 ft | 160 kts | 17° |
| 2026-04-26 14:09 | 41.90307 | -74.14953 | 9005 ft | 160 kts | 17° |
| 2026-04-26 14:09 | 41.91367 | -74.14524 | 9009 ft | 160 kts | 17° |
| 2026-04-26 14:09 | 41.92444 | -74.14089 | 9001 ft | 161 kts | 16° |
| 2026-04-26 14:10 | 41.93510 | -74.13657 | 9005 ft | 162 kts | 16° |
| 2026-04-26 14:10 | 41.94597 | -74.13217 | 9003 ft | 162 kts | 16° |
| 2026-04-26 14:10 | 41.95669 | -74.12783 | 9003 ft | 162 kts | 16° |
| 2026-04-26 14:10 | 41.96743 | -74.12347 | 9003 ft | 162 kts | 16° |
| 2026-04-26 14:11 | 41.98905 | -74.11470 | 9003 ft | 162 kts | 16° |
| 2026-04-26 14:11 | 41.99978 | -74.11035 | 9005 ft | 162 kts | 16° |
| 2026-04-26 14:11 | 42.01063 | -74.10595 | 9005 ft | 163 kts | 17° |
| 2026-04-26 14:12 | 42.02147 | -74.10154 | 8999 ft | 163 kts | 16° |
| 2026-04-26 14:12 | 42.03238 | -74.09712 | 8998 ft | 163 kts | 16° |
| 2026-04-26 14:12 | 42.04312 | -74.09275 | 8998 ft | 162 kts | 16° |
| 2026-04-26 14:12 | 42.05386 | -74.08839 | 8996 ft | 162 kts | 16° |
| 2026-04-26 14:13 | 42.07550 | -74.07959 | 9000 ft | 161 kts | 16° |
| 2026-04-26 14:13 | 42.08616 | -74.07526 | 9002 ft | 161 kts | 16° |
| 2026-04-26 14:13 | 42.09684 | -74.07090 | 8996 ft | 161 kts | 16° |
| 2026-04-26 14:14 | 42.10767 | -74.06650 | 8996 ft | 162 kts | 16° |
| 2026-04-26 14:14 | 42.11838 | -74.06214 | 8998 ft | 161 kts | 16° |
| 2026-04-26 14:14 | 42.12903 | -74.05779 | 8997 ft | 160 kts | 16° |
| 2026-04-26 14:14 | 42.13961 | -74.05349 | 8999 ft | 161 kts | 16° |
| 2026-04-26 14:15 | 42.15043 | -74.04908 | 9002 ft | 161 kts | 16° |
| 2026-04-26 14:15 | 42.16123 | -74.04468 | 8999 ft | 160 kts | 16° |
| 2026-04-26 14:15 | 42.17187 | -74.04033 | 9003 ft | 161 kts | 16° |
| 2026-04-26 14:15 | 42.18265 | -74.03593 | 8999 ft | 163 kts | 16° |
| 2026-04-26 14:16 | 42.19349 | -74.03151 | 9001 ft | 161 kts | 16° |
| 2026-04-26 14:16 | 42.20421 | -74.02713 | 9001 ft | 161 kts | 16° |
| 2026-04-26 14:16 | 42.21495 | -74.02274 | 8996 ft | 162 kts | 16° |
| 2026-04-26 14:16 | 42.22577 | -74.01833 | 9009 ft | 161 kts | 16° |
| 2026-04-26 14:17 | 42.23638 | -74.01398 | 9010 ft | 161 kts | 16° |
| 2026-04-26 14:17 | 42.24708 | -74.00960 | 9008 ft | 161 kts | 16° |
| 2026-04-26 14:17 | 42.25779 | -74.00522 | 9008 ft | 160 kts | 16° |
| 2026-04-26 14:17 | 42.26852 | -74.00084 | 9013 ft | 161 kts | 17° |
| 2026-04-26 14:18 | 42.27921 | -73.99645 | 9009 ft | 162 kts | 17° |
| 2026-04-26 14:18 | 42.29008 | -73.99201 | 9011 ft | 162 kts | 17° |
| 2026-04-26 14:18 | 42.30084 | -73.98759 | 9017 ft | 162 kts | 16° |
| 2026-04-26 14:18 | 42.31172 | -73.98314 | 9016 ft | 163 kts | 16° |
| 2026-04-26 14:19 | 42.32248 | -73.97874 | 9016 ft | 162 kts | 16° |
| 2026-04-26 14:19 | 42.33322 | -73.97433 | 9016 ft | 162 kts | 16° |
| 2026-04-26 14:19 | 42.34407 | -73.96988 | 9015 ft | 162 kts | 16° |
| 2026-04-26 14:19 | 42.35492 | -73.96543 | 9014 ft | 162 kts | 16° |
| 2026-04-26 14:20 | 42.36571 | -73.96102 | 8905 ft | 167 kts | 16° |
| 2026-04-26 14:20 | 42.37709 | -73.95631 | 8734 ft | 173 kts | 17° |
| 2026-04-26 14:20 | 42.38862 | -73.95158 | 8561 ft | 175 kts | 17° |
| 2026-04-26 14:20 | 42.40038 | -73.94676 | 8384 ft | 176 kts | 17° |
| 2026-04-26 14:21 | 42.41204 | -73.94200 | 8209 ft | 177 kts | 17° |
| 2026-04-26 14:21 | 42.42380 | -73.93713 | 8036 ft | 178 kts | 17° |
| 2026-04-26 14:21 | 42.43560 | -73.93230 | 7855 ft | 177 kts | 18° |
| 2026-04-26 14:21 | 42.44753 | -73.92738 | 7677 ft | 177 kts | 18° |
| 2026-04-26 14:22 | 42.45926 | -73.92256 | 7510 ft | 177 kts | 18° |
| 2026-04-26 14:22 | 42.47093 | -73.91776 | 7337 ft | 176 kts | 18° |
| 2026-04-26 14:22 | 42.48259 | -73.91295 | 7166 ft | 176 kts | 18° |
| 2026-04-26 14:22 | 42.49435 | -73.90810 | 7027 ft | 174 kts | 19° |
| 2026-04-26 14:23 | 42.50562 | -73.90346 | 7025 ft | 168 kts | 19° |
| 2026-04-26 14:23 | 42.51681 | -73.89879 | 7023 ft | 165 kts | 19° |
| 2026-04-26 14:23 | 42.52770 | -73.89436 | 7019 ft | 164 kts | 19° |
| 2026-04-26 14:23 | 42.53855 | -73.88989 | 7017 ft | 164 kts | 19° |
| 2026-04-26 14:24 | 42.54950 | -73.88537 | 7026 ft | 164 kts | 19° |
| 2026-04-26 14:24 | 42.56041 | -73.88086 | 7020 ft | 163 kts | 19° |
| 2026-04-26 14:24 | 42.57124 | -73.87636 | 7023 ft | 162 kts | 19° |
| 2026-04-26 14:24 | 42.58192 | -73.87195 | 7023 ft | 162 kts | 19° |
| 2026-04-26 14:25 | 42.59271 | -73.86746 | 7022 ft | 163 kts | 19° |
| 2026-04-26 14:25 | 42.60360 | -73.86300 | 7032 ft | 162 kts | 19° |
| 2026-04-26 14:25 | 42.61430 | -73.85858 | 7027 ft | 162 kts | 19° |
| 2026-04-26 14:25 | 42.62501 | -73.85416 | 7028 ft | 161 kts | 19° |
| 2026-04-26 14:26 | 42.63579 | -73.84964 | 7025 ft | 161 kts | 19° |
| 2026-04-26 14:26 | 42.64657 | -73.84519 | 7024 ft | 161 kts | 19° |
| 2026-04-26 14:26 | 42.65726 | -73.84076 | 7028 ft | 161 kts | 19° |
| 2026-04-26 14:26 | 42.66793 | -73.83637 | 7030 ft | 161 kts | 19° |
| 2026-04-26 14:27 | 42.67508 | -73.83340 | 7030 ft | 161 kts | 19° |
| 2026-04-26 14:27 | 42.68934 | -73.82748 | 7035 ft | 161 kts | 19° |
| 2026-04-26 14:27 | 42.69652 | -73.82451 | 7034 ft | 163 kts | 19° |
| 2026-04-26 14:27 | 42.70745 | -73.81996 | 7035 ft | 162 kts | 19° |
| 2026-04-26 14:28 | 42.71826 | -73.81552 | 7022 ft | 163 kts | 18° |
| 2026-04-26 14:28 | 42.72911 | -73.81147 | 7007 ft | 163 kts | 17° |
| 2026-04-26 14:28 | 42.74019 | -73.80780 | 7012 ft | 163 kts | 15° |
| 2026-04-26 14:28 | 42.75126 | -73.80457 | 7006 ft | 164 kts | 14° |
| 2026-04-26 14:29 | 42.76259 | -73.80169 | 7003 ft | 165 kts | 12° |
| 2026-04-26 14:29 | 42.77384 | -73.79921 | 7003 ft | 164 kts | 11° |
| 2026-04-26 14:29 | 42.78522 | -73.79715 | 7003 ft | 164 kts | 9° |
| 2026-04-26 14:29 | 42.79576 | -73.79243 | 6994 ft | 161 kts | 24° |
| 2026-04-26 14:30 | 42.80684 | -73.78914 | 6994 ft | 162 kts | 10° |
| 2026-04-26 14:30 | 42.81785 | -73.78658 | 6994 ft | 162 kts | 14° |
| 2026-04-26 14:30 | 42.82889 | -73.78313 | 6993 ft | 161 kts | 16° |
| 2026-04-26 14:30 | 42.83971 | -73.77952 | 6993 ft | 161 kts | 16° |
| 2026-04-26 14:31 | 42.85065 | -73.77589 | 6991 ft | 161 kts | 16° |
| 2026-04-26 14:31 | 42.86154 | -73.77230 | 6993 ft | 163 kts | 16° |
| 2026-04-26 14:31 | 42.87265 | -73.76860 | 6982 ft | 164 kts | 16° |
| 2026-04-26 14:31 | 42.88365 | -73.76492 | 6983 ft | 164 kts | 16° |
| 2026-04-26 14:32 | 42.89477 | -73.76125 | 6973 ft | 163 kts | 15° |
| 2026-04-26 14:32 | 42.90575 | -73.75763 | 6981 ft | 164 kts | 16° |
| 2026-04-26 14:32 | 42.91688 | -73.75394 | 6974 ft | 163 kts | 16° |
| 2026-04-26 14:32 | 42.92782 | -73.75027 | 6973 ft | 163 kts | 16° |
| 2026-04-26 14:33 | 42.93872 | -73.74666 | 6974 ft | 162 kts | 15° |
| 2026-04-26 14:33 | 42.94974 | -73.74301 | 6972 ft | 162 kts | 16° |
| 2026-04-26 14:33 | 42.96075 | -73.73934 | 6972 ft | 162 kts | 16° |
| 2026-04-26 14:33 | 42.97164 | -73.73572 | 6972 ft | 162 kts | 16° |
| 2026-04-26 14:34 | 42.98266 | -73.73206 | 6973 ft | 162 kts | 15° |
| 2026-04-26 14:34 | 42.99352 | -73.72844 | 6972 ft | 163 kts | 15° |
| 2026-04-26 14:34 | 43.00460 | -73.72474 | 6981 ft | 163 kts | 16° |
| 2026-04-26 14:34 | 43.01556 | -73.72109 | 6974 ft | 163 kts | 15° |
| 2026-04-26 14:35 | 43.02663 | -73.71741 | 6974 ft | 163 kts | 15° |
| 2026-04-26 14:35 | 43.03762 | -73.71374 | 6974 ft | 163 kts | 15° |
| 2026-04-26 14:35 | 43.04853 | -73.71011 | 6973 ft | 162 kts | 16° |
| 2026-04-26 14:35 | 43.05959 | -73.70641 | 6978 ft | 162 kts | 15° |
| 2026-04-26 14:36 | 43.07044 | -73.70279 | 6976 ft | 162 kts | 15° |
| 2026-04-26 14:36 | 43.08141 | -73.69913 | 6977 ft | 161 kts | 16° |
| 2026-04-26 14:36 | 43.09238 | -73.69552 | 6975 ft | 162 kts | 15° |
| 2026-04-26 14:36 | 43.10324 | -73.69184 | 6977 ft | 162 kts | 16° |
| 2026-04-26 14:37 | 43.11431 | -73.68811 | 6977 ft | 162 kts | 15° |
| 2026-04-26 14:37 | 43.12545 | -73.68619 | 6978 ft | 163 kts | 6° |
| 2026-04-26 14:37 | 43.13680 | -73.68523 | 6979 ft | 163 kts | 7° |
| 2026-04-26 14:37 | 43.14823 | -73.68424 | 6980 ft | 164 kts | 6° |
| 2026-04-26 14:38 | 43.15953 | -73.68331 | 6981 ft | 164 kts | 6° |
| 2026-04-26 14:38 | 43.17083 | -73.68234 | 6980 ft | 164 kts | 6° |
| 2026-04-26 14:38 | 43.18228 | -73.68134 | 6981 ft | 163 kts | 6° |
| 2026-04-26 14:38 | 43.19356 | -73.68043 | 6980 ft | 163 kts | 6° |
| 2026-04-26 14:39 | 43.20492 | -73.67949 | 6980 ft | 163 kts | 6° |
| 2026-04-26 14:39 | 43.21629 | -73.67851 | 6983 ft | 163 kts | 6° |
| 2026-04-26 14:39 | 43.22760 | -73.67755 | 6988 ft | 163 kts | 5° |
| 2026-04-26 14:39 | 43.23889 | -73.67662 | 6971 ft | 164 kts | 5° |
| 2026-04-26 14:40 | 43.25059 | -73.67559 | 6844 ft | 170 kts | 6° |
| 2026-04-26 14:40 | 43.25481 | -73.67521 | 6803 ft | 171 kts | 6° |
| 2026-04-26 14:42 | 43.26115 | -73.67462 | 6739 ft | 172 kts | 5° |
| 2026-04-26 14:42 | 43.27328 | -73.67376 | 6621 ft | 176 kts | 4° |
| 2026-04-26 14:42 | 43.28542 | -73.67320 | 6486 ft | 176 kts | 4° |
| 2026-04-26 14:42 | 43.29768 | -73.67266 | 6354 ft | 175 kts | 4° |
| 2026-04-26 14:43 | 43.30359 | -73.67243 | 6297 ft | 176 kts | 4° |
| 2026-04-26 14:43 | 43.30701 | -73.67231 | 6257 ft | 176 kts | 3° |
| 2026-04-26 14:43 | 43.31925 | -73.67187 | 6127 ft | 175 kts | 4° |
| 2026-04-26 14:44 | 43.33134 | -73.67141 | 5999 ft | 175 kts | 4° |
| 2026-04-26 14:44 | 43.34360 | -73.67091 | 5858 ft | 175 kts | 3° |
| 2026-04-26 14:44 | 43.35569 | -73.67039 | 5734 ft | 175 kts | 4° |
| 2026-04-26 14:44 | 43.36788 | -73.66987 | 5605 ft | 174 kts | 4° |
| 2026-04-26 14:45 | 43.38010 | -73.66939 | 5472 ft | 174 kts | 4° |
| 2026-04-26 14:45 | 43.38815 | -73.66914 | 5387 ft | 174 kts | 3° |
| 2026-04-26 14:45 | 43.40429 | -73.66854 | 5216 ft | 174 kts | 4° |
| 2026-04-26 14:45 | 43.41630 | -73.66808 | 5089 ft | 174 kts | 3° |
| 2026-04-26 14:46 | 43.42848 | -73.66783 | 4974 ft | 174 kts | 2° |
| 2026-04-26 14:46 | 43.44054 | -73.66751 | 4822 ft | 175 kts | 3° |
| 2026-04-26 14:46 | 43.45275 | -73.66700 | 4689 ft | 174 kts | 4° |
| 2026-04-26 14:46 | 43.46488 | -73.66652 | 4554 ft | 172 kts | 4° |
| 2026-04-26 14:47 | 43.47678 | -73.66594 | 4426 ft | 172 kts | 5° |
| 2026-04-26 14:47 | 43.48872 | -73.66482 | 4290 ft | 171 kts | 12° |
| 2026-04-26 14:47 | 43.49986 | -73.65987 | 4156 ft | 169 kts | 23° |
| 2026-04-26 14:47 | 43.51069 | -73.65323 | 4025 ft | 169 kts | 28° |
| 2026-04-26 14:48 | 43.52089 | -73.64559 | 3899 ft | 168 kts | 31° |
| 2026-04-26 14:48 | 43.53115 | -73.63773 | 3769 ft | 168 kts | 30° |
| 2026-04-26 14:48 | 43.54100 | -73.62937 | 3642 ft | 168 kts | 35° |
| 2026-04-26 14:48 | 43.55069 | -73.62029 | 3513 ft | 167 kts | 36° |
| 2026-04-26 14:49 | 43.56023 | -73.61135 | 3386 ft | 167 kts | 36° |
| 2026-04-26 14:49 | 43.56989 | -73.60212 | 3254 ft | 167 kts | 36° |
| 2026-04-26 14:49 | 43.57942 | -73.59304 | 3123 ft | 167 kts | 36° |
| 2026-04-26 14:49 | 43.58881 | -73.58409 | 3081 ft | 162 kts | 35° |
| 2026-04-26 14:50 | 43.59798 | -73.57525 | 3071 ft | 159 kts | 36° |
| 2026-04-26 14:50 | 43.60696 | -73.56668 | 3069 ft | 158 kts | 36° |
| 2026-04-26 14:50 | 43.61603 | -73.55807 | 3066 ft | 157 kts | 36° |
| 2026-04-26 14:50 | 43.62489 | -73.54955 | 3061 ft | 157 kts | 36° |
| 2026-04-26 14:51 | 43.63387 | -73.54098 | 3070 ft | 156 kts | 36° |
| 2026-04-26 14:51 | 43.64282 | -73.53249 | 3068 ft | 156 kts | 36° |
| 2026-04-26 14:51 | 43.65172 | -73.52393 | 3067 ft | 157 kts | 37° |
| 2026-04-26 14:51 | 43.66055 | -73.51539 | 3068 ft | 156 kts | 36° |
| 2026-04-26 14:52 | 43.66957 | -73.50687 | 3069 ft | 158 kts | 34° |
| 2026-04-26 14:52 | 43.67895 | -73.49915 | 3069 ft | 158 kts | 27° |
| 2026-04-26 14:52 | 43.68896 | -73.49255 | 3068 ft | 158 kts | 29° |
| 2026-04-26 14:52 | 43.69826 | -73.48463 | 3014 ft | 160 kts | 34° |
| 2026-04-26 14:53 | 43.70780 | -73.47616 | 2879 ft | 163 kts | 34° |
| 2026-04-26 14:53 | 43.71736 | -73.46755 | 2761 ft | 164 kts | 34° |
| 2026-04-26 14:53 | 43.72689 | -73.45893 | 2638 ft | 165 kts | 33° |
| 2026-04-26 14:53 | 43.73648 | -73.45013 | 2507 ft | 167 kts | 33° |
| 2026-04-26 14:54 | 43.74603 | -73.44120 | 2381 ft | 167 kts | 34° |
| 2026-04-26 14:54 | 43.75566 | -73.43221 | 2253 ft | 167 kts | 33° |
| 2026-04-26 14:54 | 43.76513 | -73.42350 | 2126 ft | 160 kts | 32° |
| 2026-04-26 14:54 | 43.77499 | -73.41724 | 2131 ft | 154 kts | 15° |
| 2026-04-26 14:55 | 43.78529 | -73.41623 | 2131 ft | 149 kts | 359° |
| 2026-04-26 14:55 | 43.79569 | -73.41725 | 2043 ft | 150 kts | 359° |
| 2026-04-26 14:55 | 43.80604 | -73.41748 | 1997 ft | 143 kts | 2° |
| 2026-04-26 14:55 | 43.81588 | -73.41680 | 1780 ft | 142 kts | 4° |
| 2026-04-26 14:56 | 43.82524 | -73.41618 | 1592 ft | 126 kts | 2° |
| 2026-04-26 14:56 | 43.83330 | -73.41568 | 1498 ft | 109 kts | 3° |
| 2026-04-26 14:56 | 43.84027 | -73.41536 | 1270 ft | 93 kts | 4° |
| 2026-04-26 14:56 | 43.84660 | -73.41475 | 1055 ft | 90 kts | 3° |
| 2026-04-26 14:57 | 43.85277 | -73.41461 | 875 ft | 89 kts | 4° |
| 2026-04-26 14:57 | 43.85868 | -73.41424 | 700 ft | 81 kts | 2° |
| 2026-04-26 14:57 | 43.86400 | -73.41390 | 543 ft | 74 kts | 2° |
| 2026-04-26 14:57 | 43.86914 | -73.41366 | 412 ft | 75 kts | 2° |
| 2026-04-26 14:58 | 43.87418 | -73.41335 | 303 ft | 66 kts | 2° |
| 2026-04-26 14:58 | 43.87786 | -73.41310 | 290 ft | 38 kts | 0° |
| 2026-04-26 14:58 | 43.87974 | -73.41305 | 294 ft | 18 kts | 2° |
| 2026-04-26 14:58 | 43.88073 | -73.41288 | 294 ft | 14 kts | 17° |
| 2026-04-26 14:59 | 43.88070 | -73.41298 | 294 ft | 11 kts | 168° |
| 2026-04-26 14:59 | 43.87959 | -73.41300 | 293 ft | 21 kts | 182° |
| 2026-04-26 14:59 | 43.87776 | -73.41312 | 290 ft | 30 kts | 184° |
| 2026-04-26 14:59 | 43.87651 | -73.41321 | 294 ft | 21 kts | 182° |
| 2026-04-26 15:00 | 43.87508 | -73.41328 | 291 ft | 18 kts | 184° |
| 2026-04-26 15:00 | 43.87357 | -73.41335 | 300 ft | 25 kts | 185° |
| 2026-04-26 15:00 | 43.87193 | -73.41346 | 304 ft | 16 kts | 154° |
| 2026-04-26 15:00 | 43.87103 | -73.41301 | 303 ft | 13 kts | 181° |
| 2026-04-26 15:01 | 43.87010 | -73.41274 | 304 ft | 14 kts | 120° |
| 2026-04-26 15:01 | 43.86960 | -73.41229 | 303 ft | 7 kts | 167° |
| 2026-04-26 15:01 | 43.86981 | -73.41205 | 302 ft | 2 kts | 296° |
| 2026-04-26 15:01 | 43.86981 | -73.41206 | 302 ft | 0 kts | 296° |